Norris Rancho Marino Reserve, California Weather observations

Data are for 10 minute period ending at time listed.
 Day   Time   Solar   Ave.   Ave.  Ave.  Vector  Max.   Baro.   Total    
  of    of     Rad.   Air    Rel.  Wind   Wind   Wind  Press.  Precip.   
Year   Day            Temp.  Hum.  Speed  Dir.   Gust                    
2015   (PST)  Kw/m2    F      %     mph   deg.    mph    mb.     in.     
-------------------------------------------------------------------------
 144   14:20   0.83   59.0    77   10.1   286    14.5   1012.9    0.00 
 144   14:30   0.81   59.6    76   10.8   285    15.2   1012.9    0.00 
 144   14:40   0.79   58.8    77    9.9   291    13.4   1012.8    0.00 
 144   14:50   0.77   58.8    78   10.4   290    13.6   1012.7    0.00 
 144   15:00   0.74   58.9    78   11.4   289    15.1   1012.6    0.00 
 144   15:10   0.72   58.9    77   11.5   292    15.0   1012.5    0.00 
 144   15:20   0.69   58.8    78   12.2   287    16.4   1012.4    0.00 
 144   15:30   0.66   59.4    76   13.7   284    18.6   1012.4    0.00 
 144   15:40   0.64   59.0    78   14.8   290    20.5   1012.4    0.00 
 144   15:50   0.61   58.9    78   15.9   294    21.0   1012.4    0.00 
 144   16:00   0.58   58.5    79   15.7   294    21.1   1012.4    0.00 
 144   16:10   0.54   58.3    79   15.4   295    20.2   1012.4    0.00 
 144   16:20   0.51   57.7    80   18.1   295    22.6   1012.4    0.00 
 144   16:30   0.48   57.8    80   17.7   295    24.3   1012.3    0.00 
 144   16:40   0.45   57.5    81   19.3   295    24.0   1012.3    0.00 
 144   16:50   0.42   57.4    81   18.5   295    23.2   1012.2    0.00 
 144   17:00   0.38   57.1    82   18.0   296    23.1   1012.1    0.00 
 144   17:10   0.35   56.8    83   18.6   296    23.9   1012.0    0.00 
 144   17:20   0.33   56.8    84   17.4   295    22.1   1012.0    0.00 
 144   17:30   0.28   56.6    84   17.5   296    23.9   1012.1    0.00 
 144   17:40   0.28   56.6    84   15.4   294    20.9   1012.2    0.00 
 144   17:50   0.23   56.3    85   15.4   293    19.6   1012.2    0.00 
 144   18:00   0.22   56.1    86   14.6   294    20.2   1012.3    0.00 
 144   18:10   0.18   55.9    86   16.6   294    21.3   1012.2    0.00 
 144   18:20   0.15   55.6    87   15.6   296    21.6   1012.1    0.00 
 144   18:30   0.10   55.3    87   14.8   299    21.9   1012.0    0.00 
 144   18:40   0.09   55.1    88   13.3   300    17.5   1011.9    0.00 
 144   18:50   0.06   54.8    89   13.4   300    18.8   1011.8    0.00 
 144   19:00   0.03   54.6    89   11.8   302    17.0   1011.6    0.00 
 144   19:10   0.01   54.4    90   11.3   304    16.4   1011.6    0.00 
 144   19:20   0.01   54.1    90    9.4   305    14.5   1011.5    0.00 
 144   19:30   0.00   54.0    91    9.3   301    14.0   1011.4    0.00 
 144   19:40   0.00   54.0    91   11.3   297    15.7   1011.4    0.00 
 144   19:50   0.00   53.7    92    9.1   304    14.7   1011.3    0.00 
 144   20:00   0.00   53.7    92    9.7   302    15.6   1011.3    0.00 
 144   20:10   0.00   53.7    92   10.5   299    15.1   1011.4    0.00 
 144   20:20   0.00   53.8    92   11.4   297    15.9   1011.5    0.00 
 144   20:30   0.00   53.8    92   12.9   296    16.4   1011.6    0.00 
 144   20:40   0.00   53.7    92   11.1   298    16.9   1011.6    0.00 
 144   20:50   0.00   53.4    92    9.2   304    13.7   1011.8    0.00 
 144   21:00   0.00   53.8    92   13.0   295    18.6   1011.9    0.00 
 144   21:10   0.00   53.8    92   13.2   297    18.4   1012.0    0.00 
 144   21:20   0.00   53.9    92   12.0   298    15.6   1012.2    0.00 
 144   21:30   0.00   54.0    92   10.9   302    15.9   1012.3    0.00 
 144   21:40   0.00   54.1    92    9.6   304    12.7   1012.4    0.00 
 144   21:50   0.00   54.1    92   10.7   303    15.3   1012.3    0.00 
 144   22:00   0.00   54.2    92    8.9   311    14.8   1012.3    0.00 
 144   22:10   0.00   54.0    91    7.9   316    12.6   1012.3    0.00 
 144   22:20   0.00   54.0    90    5.5   314     8.6   1012.2    0.00 
 144   22:30   0.00   54.1    90    5.3   311     8.8   1012.3    0.00 
 144   22:40   0.00   54.1    89    5.8   317     8.2   1012.2    0.00 
 144   22:50   0.00   54.1    89    4.0   311     6.6   1012.1    0.00 
 144   23:00   0.00   54.3    89    4.1   307     7.6   1012.1    0.00 
 144   23:10   0.00   54.4    89    4.8   302     7.6   1012.1    0.00 
 144   23:20   0.00   54.3    90    6.7   304     8.8   1012.0    0.00 
 144   23:30   0.00   54.3    91    3.5   346     6.4   1011.9    0.00 
 144   23:40   0.00   54.2    90    2.0    22     3.7   1011.9    0.00 
 144   23:50   0.00   54.3    90    2.0    88     5.6   1011.9    0.00 
 145    0:00   0.00   54.4    89    4.0   100     5.8   1012.0    0.00 
 145    0:10   0.00   54.8    88    3.5   126     5.0   1012.0    0.00 
 145    0:20   0.00   54.9    88    0.9   212     3.4   1012.0    0.00 
 145    0:30   0.00   54.8    88    1.4   276     2.9   1012.1    0.00 
 145    0:40   0.00   54.8    88    1.8   297     3.4   1012.1    0.00 
 145    0:50   0.00   54.7    88    4.6   311     9.4   1012.0    0.00 
 145    1:00   0.00   54.7    88    6.4   296    11.2   1012.0    0.00 
 145    1:10   0.00   54.6    88    9.0   290    12.6   1012.0    0.00 
 145    1:20   0.00   54.4    89    9.1   284    11.3   1012.0    0.00 
 145    1:30   0.00   54.1    90    7.2   282    10.4   1011.8    0.00 
 145    1:40   0.00   54.0    91    7.6   267    10.7   1011.7    0.00 
 145    1:50   0.00   53.9    91    5.3   265     8.8   1011.6    0.00 
 145    2:00   0.00   54.0    92    3.7   282     6.7   1011.5    0.00 
 145    2:10   0.00   53.9    92    2.9     8     4.2   1011.4    0.00 
 145    2:20   0.00   53.8    91    3.2   354     5.1   1011.3    0.00 
 145    2:30   0.00   53.8    91    2.4   352     4.5   1011.4    0.00 
 145    2:40   0.00   53.7    90    0.5    55     1.6   1011.3    0.00 
 145    2:50   0.00   54.1    90    2.4   262     4.6   1011.4    0.00 
 145    3:00   0.00   54.2    90    4.5   283     6.4   1011.4    0.00 
 145    3:10   0.00   54.0    91    5.5   270     7.3   1011.4    0.00 
 145    3:20   0.00   53.9    92    3.2   267     5.2   1011.4    0.00 
 145    3:30   0.00   53.9    92    2.0   251     3.1   1011.3    0.00 
 145    3:40   0.00   53.9    92    2.5   236     3.8   1011.3    0.00 
 145    3:50   0.00   53.7    92    1.4   232     2.6   1011.3    0.00 
 145    4:00   0.00   53.7    92    0.4   236     2.0   1011.3    0.00 
 145    4:10   0.00   53.8    92    1.3   232     3.1   1011.5    0.00 
 145    4:20   0.00   53.6    91    1.4   260     3.1   1011.6    0.00 
 145    4:30   0.00   53.6    91    3.7   284     6.2   1011.6    0.00 
 145    4:40   0.00   53.7    91    5.3   286     7.0   1011.7    0.00 
 145    4:50   0.00   53.6    91    4.8   293     6.6   1011.8    0.00 
 145    5:00   0.00   53.6    91    4.5   284     6.1   1011.8    0.00 
 145    5:10   0.00   53.5    91    4.3   284     5.3   1011.8    0.00 
 145    5:20   0.01   53.6    90    2.9   300     5.0   1011.8    0.00 
 145    5:30   0.01   53.7    90    4.7   312     6.0   1011.8    0.00 
 145    5:40   0.01   53.7    91    4.5   298     6.3   1011.9    0.00 
 145    5:50   0.02   53.6    91    5.0   309     6.9   1011.9    0.00 
 145    6:00   0.03   53.7    91    5.3   286     6.6   1011.9    0.00 
 145    6:10   0.03   53.7    92    4.5   290     5.8   1012.0    0.00 
 145    6:20   0.04   53.6    92    5.2   283     6.9   1012.0    0.00 
 145    6:30   0.04   53.6    93    5.1   283     6.4   1012.0    0.00 
 145    6:40   0.06   53.6    93    4.2   276     5.2   1012.1    0.00 
 145    6:50   0.06   53.7    93    3.6   273     5.0   1012.2    0.00 
 145    7:00   0.06   53.6    94    4.2   270     6.1   1012.3    0.00 
 145    7:10   0.07   53.6    93    4.0   255     5.4   1012.6    0.00 
 145    7:20   0.08   53.5    93    4.3   265     5.9   1012.7    0.00 
 145    7:30   0.10   53.6    93    4.2   266     5.3   1012.7    0.00 
 145    7:40   0.10   53.7    93    3.8   271     5.4   1012.8    0.00 
 145    7:50   0.11   53.8    92    2.3   270     4.4   1012.8    0.00 
 145    8:00   0.12   54.0    92    1.5   225     3.0   1012.8    0.00 
 145    8:10   0.14   54.1    91    1.5   197     3.6   1013.0    0.00 
 145    8:20   0.16   54.4    90    2.5   189     4.1   1013.1    0.00 
 145    8:30   0.20   54.7    89    2.9   158     4.6   1013.2    0.00 
 145    8:40   0.23   54.9    87    3.4   133     5.1   1013.2    0.00 
 145    8:50   0.27   55.4    85    3.9   165     5.3   1013.3    0.00 
 145    9:00   0.25   55.6    85    3.6   168     4.9   1013.5    0.00 
 145    9:10   0.27   55.7    85    3.4   162     5.6   1013.5    0.00 
 145    9:20   0.28   56.0    83    3.4   145     5.5   1013.5    0.00 
 145    9:30   0.30   56.2    83    3.8   148     6.5   1013.5    0.00 
 145    9:40   0.30   56.4    82    3.6   158     4.8   1013.6    0.00 
 145    9:50   0.32   56.5    83    4.2   165     6.2   1013.7    0.00 
 145   10:00   0.33   56.6    82    3.6   180     4.5   1013.8    0.00 
 145   10:10   0.34   56.3    82    3.7   198     4.7   1013.8    0.00 
 145   10:20   0.29   56.1    83    3.7   232     6.0   1013.8    0.00 
 145   10:30   0.27   56.0    83    4.5   274     7.8   1013.9    0.00 
 145   10:40   0.29   55.9    82    5.9   282     7.7   1014.0    0.00 
 145   10:50   0.32   56.0    82    6.7   279     9.5   1014.0    0.00 
 145   11:00   0.35   56.1    81    6.8   286     8.3   1013.9    0.00 
 145   11:10   0.35   56.8    80    6.3   280     8.7   1014.0    0.00 
 145   11:20   0.35   56.6    80    6.1   278     7.7   1014.0    0.00 
 145   11:30   0.40   56.7    80    7.1   289     8.7   1014.0    0.00 
 145   11:40   0.44   56.8    79    7.6   286     9.6   1014.0    0.00 
 145   11:50   0.46   56.8    79    7.3   287     9.6   1013.9    0.00 
 145   12:00   0.44   56.9    79    7.2   288     9.4   1013.9    0.00 
 145   12:10   0.50   57.1    79    7.4   287     9.6   1013.8    0.00 
 145   12:20   0.53   58.0    77    8.0   286    10.5   1013.7    0.00 
 145   12:30   0.58   57.9    76    8.5   285    10.7   1013.7    0.00 
 145   12:40   0.61   57.8    77    7.4   279     9.3   1013.7    0.00 
 145   12:50   0.67   58.2    77    6.7   279     9.4   1013.6    0.00 
 145   13:00   0.81   59.2    75    7.9   273    10.7   1013.6    0.00 
 145   13:10   0.87   59.5    74    8.6   279    12.0   1013.5    0.00 
 145   13:20   0.76   58.9    74    9.3   284    12.2   1013.4    0.00 
 145   13:30   0.68   58.9    74    9.5   282    12.3   1013.3    0.00 
 145   13:40   0.64   58.9    74    8.8   285    12.3   1013.2    0.00 
 145   13:50   0.64   59.2    74    9.3   279    12.1   1013.2    0.00 
 145   14:00   0.69   58.5    76    8.9   275    11.7   1013.1    0.00 
 145   14:10   0.94   59.6    74    7.4   269    10.2   1013.1    0.00 

Return to Norris Rancho Marino Reserve graphs page.


Western Regional Climate Center,wrcc@dri.edu